This is the latest recevied weather packets stored in our database for station/object SR5NLK-1. If no packets are shown the sender has not sent any weather packets the latest 10 day(s).
| Time | Temp. | Humidity | Pressure | Rain* | Wind** | Luminosity | Snow |
|---|---|---|---|---|---|---|---|
| 1787728838 | 23.89° C | 62% | 1072.1 hPa | 0 mm | - | - | - |
| 1787728802 | 27.78° C | 46% | 1008.7 hPa | 0 mm | - | - | - |
| 1787728741 | 27.78° C | 46% | 1038.3 hPa | 0 mm | - | - | - |
| 1787728502 | 27.78° C | 46% | 1008.7 hPa | 0 mm | - | - | - |
| 1787728202 | 27.78° C | 47% | 1034.4 hPa | 0 mm | - | - | - |
| 1787727902 | 27.22° C | 48% | 1044.9 hPa | 0 mm | - | - | - |
| 1787727675 | 22.78° C | 68% | 1043.9 hPa | 0 mm | - | - | - |
| 1787727602 | 27.22° C | 49% | 1078.4 hPa | 0 mm | - | - | - |
| 1787727302 | 27.22° C | 48% | 1065.8 hPa | 0 mm | - | - | - |
| 1787727238 | 22.78° C | 72% | 1081.5 hPa | 0 mm | - | - | - |
| 1787727002 | 27.22° C | 48% | 1086.2 hPa | 0 mm | - | - | - |
| 1787726761 | 27.22° C | 49% | 1021.7 hPa | 0 mm | - | - | - |
| 1787726703 | 27.22° C | 49% | 1082 hPa | 0 mm | - | - | - |
| 1787726458 | 21.67° C | 78% | 963.9 hPa | 0 mm | - | - | - |
| 1787726402 | 26.67° C | 51% | 1072.1 hPa | 0 mm | - | - | - |
| 1787726117 | 21.11° C | 82% | 1072.1 hPa | 0 mm | - | - | - |
| 1787726102 | 26.11° C | 51% | 1062.6 hPa | 0 mm | - | - | - |
| 1787725802 | 26.11° C | 51% | 1086.2 hPa | 0 mm | - | - | - |
| 1787725725 | 20° C | 86% | 1072.1 hPa | 0 mm | - | - | - |
| 1787725502 | 26.11° C | 51% | 1014.5 hPa | 0 mm | - | - | - |
| 1787725305 | 19.44° C | 91% | 1075.2 hPa | 0 mm | - | - | - |
| 1787725202 | 26.67° C | 51% | 1039.7 hPa | 0 mm | - | - | - |
| 1787724949 | 18.33° C | 92% | 1084.6 hPa | 0 mm | - | - | - |
| 1787724902 | 26.11° C | 53% | 1072.1 hPa | 0 mm | - | - | - |
| 1787724781 | 26.11° C | 54% | 1078.4 hPa | 0 mm | - | - | - |
* Rain latest hour (hover to see other rain measurements)
** Current wind speed in m/s (hover to see current wind gust speed)